createdAt,value
2022-08-18T00:03:04.420Z,97550.00
2022-08-18T00:07:07.672Z,97551.00
2022-08-18T00:11:08.878Z,97539.00
2022-08-18T00:15:12.999Z,97527.00
2022-08-18T00:19:14.218Z,97531.00
2022-08-18T00:23:15.491Z,97533.00
2022-08-18T00:27:21.825Z,97537.00
2022-08-18T00:31:24.047Z,97530.00
2022-08-18T00:35:29.419Z,97532.00
2022-08-18T00:39:35.089Z,97529.00
2022-08-18T00:43:45.251Z,97532.00
2022-08-18T00:47:46.702Z,97534.00
2022-08-18T00:51:50.210Z,97539.00
2022-08-18T00:55:53.948Z,97546.00
2022-08-18T01:00:04.262Z,97546.00
2022-08-18T01:04:24.366Z,97564.00
2022-08-18T01:08:29.258Z,97563.00
2022-08-18T01:12:44.077Z,97553.00
2022-08-18T01:16:55.325Z,97545.00
2022-08-18T01:21:28.282Z,97543.00
2022-08-18T01:25:50.179Z,97545.00
2022-08-18T01:29:51.107Z,97547.00
2022-08-18T01:33:52.094Z,97551.00
2022-08-18T01:37:54.142Z,97550.00
2022-08-18T01:41:55.282Z,97551.00
2022-08-18T01:45:58.128Z,97555.00
2022-08-18T01:50:00.156Z,97566.00
2022-08-18T01:54:04.123Z,97566.00
2022-08-18T01:58:07.402Z,97553.00
2022-08-18T02:02:18.538Z,97556.00
2022-08-18T02:06:18.646Z,97568.00
2022-08-18T02:10:21.701Z,97566.00
2022-08-18T02:14:44.540Z,97563.00
2022-08-18T02:18:48.204Z,97552.00
2022-08-18T02:22:49.629Z,97545.00
2022-08-18T02:26:50.653Z,97546.00
2022-08-18T02:30:51.734Z,97545.00
2022-08-18T02:34:52.623Z,97549.00
2022-08-18T02:38:56.641Z,97553.00
2022-08-18T02:42:57.372Z,97548.00
2022-08-18T02:46:58.879Z,97546.00
2022-08-18T02:51:06.348Z,97553.00
2022-08-18T02:55:08.518Z,97556.00
2022-08-18T02:59:13.216Z,97556.00
2022-08-18T03:03:14.393Z,97551.00
2022-08-18T03:07:15.268Z,97553.00
2022-08-18T03:11:18.294Z,97550.00
2022-08-18T03:15:19.499Z,97542.00
2022-08-18T03:19:28.791Z,97552.00
2022-08-18T03:23:30.479Z,97559.00
2022-08-18T03:27:31.471Z,97557.00
2022-08-18T03:31:33.083Z,97558.00
2022-08-18T03:35:36.368Z,97552.00
2022-08-18T03:39:37.909Z,97561.00
2022-08-18T03:43:51.130Z,97563.00
2022-08-18T03:47:44.860Z,97562.00
2022-08-18T03:51:46.371Z,97563.00
2022-08-18T03:55:47.374Z,97555.00
2022-08-18T03:59:49.046Z,97548.00
2022-08-18T04:03:54.821Z,97553.00
2022-08-18T04:07:56.717Z,97559.00
2022-08-18T04:12:00.615Z,97563.00
2022-08-18T04:16:01.816Z,97546.00
2022-08-18T04:20:04.142Z,97541.00
2022-08-18T04:24:06.961Z,97543.00
2022-08-18T04:28:08.034Z,97547.00
2022-08-18T04:32:09.348Z,97545.00
2022-08-18T04:36:13.792Z,97541.00
2022-08-18T04:40:20.213Z,97565.00
2022-08-18T04:44:20.911Z,97535.00
2022-08-18T04:48:22.750Z,97535.00
2022-08-18T04:52:42.713Z,97540.00
2022-08-18T04:56:43.831Z,97553.00
2022-08-18T05:00:45.930Z,97550.00
2022-08-18T05:04:47.297Z,97546.00
2022-08-18T05:08:48.325Z,97544.00
2022-08-18T05:12:49.456Z,97547.00
2022-08-18T05:16:51.458Z,97556.00
2022-08-18T05:20:54.851Z,97556.00
2022-08-18T05:24:55.871Z,97561.00
2022-08-18T05:29:04.432Z,97566.00
2022-08-18T05:33:02.398Z,97562.00
2022-08-18T05:37:25.667Z,97570.00
2022-08-18T05:41:32.508Z,97577.00
2022-08-18T05:45:34.515Z,97571.00
2022-08-18T05:49:36.007Z,97583.00
2022-08-18T05:53:42.656Z,97588.00
2022-08-18T05:57:49.282Z,97589.00
2022-08-18T06:01:57.187Z,97590.00
2022-08-18T06:06:04.946Z,97598.00
2022-08-18T06:10:08.444Z,97589.00
2022-08-18T06:14:10.098Z,97594.00
2022-08-18T06:18:32.749Z,97579.00
2022-08-18T06:22:46.403Z,97577.00
2022-08-18T06:27:09.777Z,97583.00
2022-08-18T06:31:14.525Z,97578.00
2022-08-18T06:35:37.754Z,97573.00
2022-08-18T06:39:48.261Z,97567.00
2022-08-18T06:43:58.112Z,97558.00
2022-08-18T06:48:18.383Z,97551.00
2022-08-18T06:52:35.413Z,97551.00
2022-08-18T06:56:40.345Z,97555.00
2022-08-18T07:00:54.985Z,97567.00
2022-08-18T07:05:17.667Z,97563.00
2022-08-18T07:09:25.099Z,97566.00
2022-08-18T07:13:29.995Z,97572.00
2022-08-18T07:17:42.443Z,97588.00
2022-08-18T07:21:40.416Z,97579.00
2022-08-18T07:25:44.611Z,97589.00
2022-08-18T07:30:09.207Z,97588.00
2022-08-18T07:34:25.480Z,97595.00
2022-08-18T07:38:43.121Z,97595.00
2022-08-18T07:43:00.543Z,97599.00
2022-08-18T07:46:58.798Z,97602.00
2022-08-18T07:51:20.447Z,97602.00
2022-08-18T07:55:26.947Z,97610.00
2022-08-18T07:59:52.885Z,97601.00
2022-08-18T08:04:06.696Z,97603.00
2022-08-18T08:08:14.596Z,97616.00
2022-08-18T08:12:29.428Z,97619.00
2022-08-18T08:16:43.803Z,97623.00
2022-08-18T08:20:56.919Z,97629.00
2022-08-18T08:25:22.641Z,97637.00
2022-08-18T08:29:32.485Z,97634.00
2022-08-18T08:33:37.458Z,97638.00
2022-08-18T08:37:49.055Z,97641.00
2022-08-18T08:42:31.629Z,97640.00
2022-08-18T08:46:19.313Z,97652.00
2022-08-18T08:50:26.204Z,97667.00
2022-08-18T08:54:39.658Z,97671.00
2022-08-18T08:58:44.742Z,97664.00
2022-08-18T09:02:55.768Z,97661.00
2022-08-18T09:07:20.479Z,97667.00
2022-08-18T09:11:28.317Z,97665.00
2022-08-18T09:15:42.200Z,97667.00
2022-08-18T09:20:04.889Z,97664.00
2022-08-18T09:24:10.384Z,97660.00
2022-08-18T09:28:33.746Z,97665.00
2022-08-18T09:32:44.561Z,97648.00
2022-08-18T09:37:06.196Z,97642.00
2022-08-18T09:41:31.443Z,97638.00
2022-08-18T09:45:43.071Z,97648.00
2022-08-18T09:49:53.166Z,97653.00
2022-08-18T09:54:07.566Z,97647.00
2022-08-18T09:58:28.778Z,97650.00
2022-08-18T10:02:36.959Z,97657.00
2022-08-18T10:06:38.545Z,97641.00
2022-08-18T10:11:01.004Z,97631.00
2022-08-18T10:15:03.913Z,97634.00
2022-08-18T10:19:39.420Z,97641.00
2022-08-18T10:23:58.158Z,97641.00
2022-08-18T10:27:58.240Z,97633.00
2022-08-18T10:32:04.689Z,97634.00
2022-08-18T10:36:06.061Z,97642.00
2022-08-18T10:40:21.191Z,97638.00
2022-08-18T10:44:29.264Z,97645.00
2022-08-18T10:48:29.403Z,97641.00
2022-08-18T10:52:54.467Z,97640.00
2022-08-18T10:56:59.467Z,97653.00
2022-08-18T11:01:07.375Z,97661.00
2022-08-18T11:05:12.096Z,97662.00
2022-08-18T11:09:15.237Z,97646.00
2022-08-18T11:13:42.169Z,97650.00
2022-08-18T11:18:04.422Z,97639.00
2022-08-18T11:22:06.584Z,97651.00
2022-08-18T11:30:19.888Z,97641.00
2022-08-18T11:34:29.831Z,97643.00
2022-08-18T11:38:33.141Z,97647.00
2022-08-18T11:42:38.103Z,97654.00
2022-08-18T11:46:40.237Z,97651.00
2022-08-18T11:50:54.726Z,97620.00
2022-08-18T11:55:16.817Z,97575.00
2022-08-18T11:59:52.459Z,97542.00
2022-08-18T12:03:41.716Z,97531.00
2022-08-18T12:07:57.253Z,97540.00
2022-08-18T12:11:55.802Z,97560.00
2022-08-18T12:16:18.685Z,97558.00
2022-08-18T12:20:20.882Z,97558.00
2022-08-18T12:24:26.313Z,97563.00
2022-08-18T12:28:28.589Z,97563.00
2022-08-18T12:32:46.768Z,97562.00
2022-08-18T12:36:36.418Z,97576.00
2022-08-18T12:40:40.256Z,97558.00
2022-08-18T12:44:41.763Z,97538.00
2022-08-18T12:48:45.040Z,97546.00
2022-08-18T12:52:47.962Z,97541.00
2022-08-18T12:56:53.411Z,97544.00
2022-08-18T13:00:54.876Z,97538.00
2022-08-18T13:04:56.083Z,97538.00
2022-08-18T13:08:57.636Z,97545.00
2022-08-18T13:12:59.255Z,97548.00
2022-08-18T13:17:00.270Z,97547.00
2022-08-18T13:21:07.160Z,97561.00
2022-08-18T13:25:12.605Z,97567.00
2022-08-18T13:29:17.593Z,97559.00
2022-08-18T13:33:34.522Z,97548.00
2022-08-18T13:37:24.225Z,97534.00
2022-08-18T13:45:27.749Z,97533.00
2022-08-18T13:49:30.701Z,97533.00
2022-08-18T13:53:32.377Z,97525.00
2022-08-18T13:57:53.845Z,97527.00
2022-08-18T14:01:55.031Z,97539.00
2022-08-18T14:06:01.514Z,97531.00
2022-08-18T14:10:07.282Z,97533.00
2022-08-18T14:14:12.311Z,97527.00
2022-08-18T14:18:16.376Z,97528.00
2022-08-18T14:22:36.104Z,97525.00
2022-08-18T14:26:50.271Z,97522.00
2022-08-18T14:30:54.400Z,97525.00
2022-08-18T14:35:00.833Z,97519.00
2022-08-18T14:39:03.586Z,97517.00
2022-08-18T14:43:06.513Z,97510.00
2022-08-18T14:47:07.743Z,97505.00
2022-08-18T14:51:09.707Z,97497.00
2022-08-18T14:55:11.910Z,97479.00
2022-08-18T14:59:13.037Z,97492.00
2022-08-18T15:03:14.805Z,97483.00
2022-08-18T15:07:17.503Z,97483.00
2022-08-18T15:11:19.191Z,97493.00
2022-08-18T15:15:22.618Z,97493.00
2022-08-18T15:19:57.623Z,97496.00
2022-08-18T15:23:46.376Z,97498.00
2022-08-18T15:27:47.504Z,97502.00
2022-08-18T15:31:51.250Z,97500.00
2022-08-18T15:35:55.233Z,97501.00
2022-08-18T15:40:21.963Z,97495.00
2022-08-18T15:44:21.485Z,97495.00
2022-08-18T15:48:23.672Z,97497.00
2022-08-18T15:52:25.942Z,97495.00
2022-08-18T15:56:28.042Z,97497.00
2022-08-18T16:00:31.203Z,97504.00
2022-08-18T16:04:32.304Z,97488.00
2022-08-18T16:08:33.814Z,97488.00
2022-08-18T16:12:34.944Z,97482.00
2022-08-18T16:16:36.687Z,97483.00
2022-08-18T16:20:38.425Z,97489.00
2022-08-18T16:24:39.810Z,97483.00
2022-08-18T16:28:42.541Z,97481.00
2022-08-18T16:32:44.332Z,97476.00
2022-08-18T16:36:45.450Z,97480.00
2022-08-18T16:40:46.940Z,97480.00
2022-08-18T16:44:48.450Z,97477.00
2022-08-18T16:48:50.981Z,97474.00
2022-08-18T16:52:52.296Z,97477.00
2022-08-18T16:56:53.809Z,97475.00
2022-08-18T17:01:18.713Z,97470.00
2022-08-18T17:05:17.601Z,97467.00
2022-08-18T17:09:19.437Z,97470.00
2022-08-18T17:13:20.688Z,97475.00
2022-08-18T17:17:22.202Z,97473.00
2022-08-18T17:21:26.671Z,97468.00
2022-08-18T17:25:28.130Z,97386.00
2022-08-18T17:29:51.422Z,97465.00
2022-08-18T17:33:56.610Z,97470.00
2022-08-18T17:38:11.165Z,97478.00
2022-08-18T17:42:28.673Z,97484.00
2022-08-18T17:46:33.610Z,97489.00
2022-08-18T17:51:15.820Z,97509.00
2022-08-18T17:55:26.525Z,97518.00
2022-08-18T17:59:45.354Z,97531.00
2022-08-18T18:03:43.483Z,97521.00
2022-08-18T18:07:51.682Z,97527.00
2022-08-18T18:11:53.862Z,97531.00
2022-08-18T18:16:01.137Z,97533.00
2022-08-18T18:20:39.107Z,97531.00
2022-08-18T18:24:43.936Z,97539.00
2022-08-18T18:28:45.824Z,97531.00
2022-08-18T18:32:59.924Z,97534.00
2022-08-18T18:37:02.081Z,97523.00
2022-08-18T18:41:09.821Z,97533.00
2022-08-18T18:45:30.423Z,97530.00
2022-08-18T18:49:44.446Z,97524.00
2022-08-18T18:53:55.094Z,97534.00
2022-08-18T18:58:20.231Z,97531.00
2022-08-18T19:02:55.096Z,97530.00
2022-08-18T19:07:12.114Z,97529.00
2022-08-18T19:11:45.623Z,97526.00
2022-08-18T19:15:47.541Z,97531.00
2022-08-18T19:20:01.543Z,97521.00
2022-08-18T19:24:06.594Z,97514.00
2022-08-18T19:28:28.501Z,97523.00
2022-08-18T19:32:36.487Z,97520.00
2022-08-18T19:36:47.324Z,97520.00
2022-08-18T19:41:04.796Z,97526.00
2022-08-18T19:45:20.189Z,97528.00
2022-08-18T19:49:34.289Z,97533.00
2022-08-18T19:53:57.333Z,97533.00
2022-08-18T19:58:20.459Z,97535.00
2022-08-18T20:02:34.715Z,97534.00
2022-08-18T20:07:00.826Z,97530.00
2022-08-18T20:11:10.333Z,97529.00
2022-08-18T20:15:18.463Z,97513.00
2022-08-18T20:19:49.804Z,97505.00
2022-08-18T20:24:07.981Z,97512.00
2022-08-18T20:28:12.833Z,97517.00
2022-08-18T20:32:20.687Z,97510.00
2022-08-18T20:36:31.468Z,97512.00
2022-08-18T20:40:39.044Z,97510.00
2022-08-18T20:44:58.164Z,97509.00
2022-08-18T20:49:05.882Z,97510.00
2022-08-18T20:53:32.865Z,97514.00
2022-08-18T20:57:36.735Z,97525.00
2022-08-18T21:01:38.771Z,97517.00
2022-08-18T21:05:43.069Z,97523.00
2022-08-18T21:10:02.088Z,97522.00
2022-08-18T21:14:05.027Z,97516.00
2022-08-18T21:18:19.025Z,97517.00
2022-08-18T21:22:20.222Z,97519.00
2022-08-18T21:26:22.011Z,97519.00
2022-08-18T21:30:26.030Z,97532.00
2022-08-18T21:34:33.708Z,97539.00
2022-08-18T21:38:35.842Z,97529.00
2022-08-18T21:42:43.332Z,97527.00
2022-08-18T21:46:45.745Z,97505.00
2022-08-18T21:50:52.754Z,97516.00
2022-08-18T21:54:57.567Z,97521.00
2022-08-18T21:59:17.301Z,97514.00
2022-08-18T22:03:24.446Z,97521.00
2022-08-18T22:07:34.932Z,97512.00
2022-08-18T22:12:00.735Z,97516.00
2022-08-18T22:15:55.418Z,97522.00
2022-08-18T22:20:00.345Z,97515.00
2022-08-18T22:24:19.614Z,97523.00
2022-08-18T22:28:23.595Z,97520.00
2022-08-18T22:32:26.811Z,97529.00
2022-08-18T22:36:31.040Z,97536.00
2022-08-18T22:40:32.044Z,97536.00
2022-08-18T22:44:33.645Z,97543.00
2022-08-18T22:48:34.603Z,97554.00
2022-08-18T22:52:39.929Z,97552.00
2022-08-18T22:56:53.938Z,97549.00
2022-08-18T23:00:46.460Z,97560.00
2022-08-18T23:04:47.458Z,97561.00
2022-08-18T23:08:55.365Z,97569.00
2022-08-18T23:12:51.667Z,97577.00
2022-08-18T23:16:53.186Z,97581.00
2022-08-18T23:20:59.146Z,97588.00
2022-08-18T23:25:00.842Z,97577.00
2022-08-18T23:29:05.564Z,97575.00
2022-08-18T23:33:09.280Z,97577.00
2022-08-18T23:37:10.563Z,97573.00
2022-08-18T23:41:13.811Z,97579.00
2022-08-18T23:45:14.926Z,97569.00
2022-08-18T23:49:16.028Z,97566.00
2022-08-18T23:53:18.361Z,97575.00
2022-08-18T23:57:19.357Z,97570.00
